Wainscott, New York
Current Conditions -  °F | °C
As of 6:53 PM on Friday 24 Oct 2014 (Local Time) from KFOK Reporting Station
Overcast Overcast  
Wind Chill: 54°   Ceiling: 4700
Heat Index: 54°   Visibility: 10mi
Dew Point: 45°   Wind: 8mph
Humidity: 72%   Direction: 340°NNW
Pressure: 29.79"   Gusts: NA
Location:  40.94°N, 72.24°W
Report Text: KFOK 242253Z 34007KT 10SM OVC047 12/07 A2979 RMK AO2 SLP087 T01220072
Loading
Personal Weather Stations






























Interactive Weather Map
Tropical Storm Tracking
New forecast layout! Learn more

10-Day Weather Forecast

Advertisements
Track Severe Weather on mobile